createdAt,value
2022-08-20T00:02:27.482Z,15.10
2022-08-20T00:07:29.264Z,14.40
2022-08-20T00:12:30.923Z,15.20
2022-08-20T00:17:37.095Z,15.00
2022-08-20T00:22:38.839Z,15.13
2022-08-20T00:27:40.509Z,15.30
2022-08-20T00:32:44.080Z,16.47
2022-08-20T00:37:45.814Z,15.40
2022-08-20T00:42:49.827Z,14.30
2022-08-20T00:47:51.771Z,15.70
2022-08-20T00:52:53.723Z,14.77
2022-08-20T00:58:01.112Z,15.27
2022-08-20T01:03:03.771Z,13.00
2022-08-20T01:08:05.456Z,13.50
2022-08-20T01:13:12.492Z,12.93
2022-08-20T01:18:16.449Z,13.60
2022-08-20T01:23:30.334Z,13.80
2022-08-20T01:28:35.415Z,14.47
2022-08-20T01:33:37.083Z,15.07
2022-08-20T01:38:38.856Z,14.80
2022-08-20T01:43:41.843Z,15.00
2022-08-20T01:48:43.584Z,15.30
2022-08-20T01:53:47.515Z,15.43
2022-08-20T01:58:55.970Z,15.50
2022-08-20T02:04:01.954Z,15.97
2022-08-20T02:09:04.103Z,16.90
2022-08-20T02:14:07.239Z,17.10
2022-08-20T02:19:15.166Z,17.00
2022-08-20T02:24:16.814Z,17.20
2022-08-20T02:29:18.519Z,17.43
2022-08-20T02:34:22.925Z,17.07
2022-08-20T02:39:26.667Z,17.47
2022-08-20T02:44:28.327Z,17.23
2022-08-20T02:49:30.169Z,18.07
2022-08-20T02:54:31.863Z,16.80
2022-08-20T02:59:33.567Z,17.30
2022-08-20T03:04:35.302Z,15.47
2022-08-20T03:09:37.055Z,16.50
2022-08-20T03:14:38.705Z,16.80
2022-08-20T03:19:40.365Z,17.00
2022-08-20T03:24:42.102Z,17.73
2022-08-20T03:29:43.776Z,16.77
2022-08-20T03:34:45.470Z,20.40
2022-08-20T03:39:47.289Z,18.30
2022-08-20T03:44:49.223Z,19.73
2022-08-20T03:50:01.126Z,18.70
2022-08-20T03:55:03.478Z,17.83
2022-08-20T04:00:06.423Z,17.93
2022-08-20T04:05:13.503Z,16.73
2022-08-20T04:10:15.146Z,17.30
2022-08-20T04:15:17.187Z,18.83
2022-08-20T04:20:23.704Z,19.43
2022-08-20T04:25:25.360Z,17.20
2022-08-20T04:30:28.843Z,18.40
2022-08-20T04:35:30.803Z,19.80
2022-08-20T04:40:51.415Z,20.33
2022-08-20T04:45:53.633Z,19.10
2022-08-20T04:50:55.697Z,20.93
2022-08-20T04:56:00.748Z,22.13
2022-08-20T05:01:07.136Z,21.83
2022-08-20T05:06:09.800Z,23.60
2022-08-20T05:11:35.902Z,24.50
2022-08-20T05:16:37.935Z,23.60
2022-08-20T05:21:39.731Z,23.93
2022-08-20T05:26:41.445Z,22.50
2022-08-20T05:31:43.280Z,22.83
2022-08-20T05:36:48.160Z,22.30
2022-08-20T05:41:51.188Z,21.40
2022-08-20T05:46:52.854Z,20.60
2022-08-20T05:51:54.588Z,20.33
2022-08-20T05:56:56.398Z,18.50
2022-08-20T06:01:58.087Z,18.40
2022-08-20T06:07:04.830Z,18.20
2022-08-20T06:12:08.838Z,17.60
2022-08-20T06:17:15.620Z,15.07
2022-08-20T06:22:19.580Z,14.60
2022-08-20T06:27:26.309Z,15.83
2022-08-20T06:32:32.007Z,15.90
2022-08-20T06:37:36.477Z,18.40
2022-08-20T06:42:47.854Z,18.57
2022-08-20T06:47:50.192Z,18.83
2022-08-20T06:52:53.207Z,18.50
2022-08-20T06:58:02.631Z,18.07
2022-08-20T07:03:04.865Z,18.33
2022-08-20T07:08:06.543Z,18.00
2022-08-20T07:13:09.264Z,17.20
2022-08-20T07:18:11.116Z,16.50
2022-08-20T07:23:12.784Z,15.17
2022-08-20T07:28:16.501Z,13.00
2022-08-20T07:33:18.383Z,12.97
2022-08-20T07:38:24.786Z,13.53
2022-08-20T07:43:26.478Z,14.40
2022-08-20T07:48:32.478Z,11.97
2022-08-20T07:53:36.169Z,13.77
2022-08-20T07:58:39.311Z,13.13
2022-08-20T08:03:49.717Z,12.73
2022-08-20T08:08:52.209Z,13.37
2022-08-20T08:13:54.526Z,14.20
2022-08-20T08:19:01.253Z,15.53
2022-08-20T08:24:03.873Z,14.53
2022-08-20T08:29:07.536Z,13.83
2022-08-20T08:34:10.354Z,14.17
2022-08-20T08:39:12.012Z,12.00
2022-08-20T08:44:23.069Z,12.40
2022-08-20T08:49:37.603Z,11.87
2022-08-20T08:54:42.463Z,9.80
2022-08-20T08:59:47.375Z,8.43
2022-08-20T09:05:14.917Z,7.10
2022-08-20T09:10:17.527Z,6.60
2022-08-20T09:15:24.907Z,7.97
2022-08-20T09:20:27.169Z,8.17
2022-08-20T09:25:28.982Z,13.87
2022-08-20T09:30:30.693Z,9.90
2022-08-20T09:35:32.495Z,7.80
2022-08-20T09:40:34.674Z,9.93
2022-08-20T09:45:36.459Z,8.60
2022-08-20T09:50:38.933Z,10.03
2022-08-20T09:55:41.813Z,10.90
2022-08-20T10:00:43.477Z,10.57
2022-08-20T10:05:45.200Z,9.43
2022-08-20T10:10:46.877Z,8.17
2022-08-20T10:15:48.551Z,8.77
2022-08-20T10:20:50.241Z,8.40
2022-08-20T10:25:51.932Z,9.60
2022-08-20T10:30:53.580Z,8.47
2022-08-20T10:35:59.648Z,12.93
2022-08-20T10:41:01.824Z,7.93
2022-08-20T10:46:03.587Z,8.93
2022-08-20T10:51:05.352Z,8.47
2022-08-20T10:56:07.256Z,8.83
2022-08-20T11:01:08.997Z,8.60
2022-08-20T11:06:10.674Z,9.20
2022-08-20T11:11:14.502Z,8.03
2022-08-20T11:16:16.163Z,7.57
2022-08-20T11:21:17.864Z,9.10
2022-08-20T11:26:22.229Z,9.67
2022-08-20T11:31:23.931Z,9.37
2022-08-20T11:36:26.443Z,12.30
2022-08-20T11:41:28.116Z,9.20
2022-08-20T11:46:29.825Z,11.43
2022-08-20T11:51:31.470Z,10.10
2022-08-20T11:56:51.489Z,13.67
2022-08-20T12:02:02.851Z,11.70
2022-08-20T12:07:10.245Z,9.80
2022-08-20T12:12:12.117Z,7.53
2022-08-20T12:17:23.962Z,7.73
2022-08-20T12:22:25.769Z,8.30
2022-08-20T12:27:28.950Z,5.77
2022-08-20T12:32:31.234Z,6.10
2022-08-20T12:37:32.911Z,5.97
2022-08-20T12:42:34.648Z,4.23
2022-08-20T12:47:38.188Z,1.50
2022-08-20T12:52:39.869Z,1.30
2022-08-20T12:57:52.636Z,1.07
2022-08-20T13:02:55.098Z,1.00
2022-08-20T13:07:56.898Z,1.20
2022-08-20T13:12:59.068Z,1.63
2022-08-20T13:18:01.739Z,2.40
2022-08-20T13:23:04.407Z,1.63
2022-08-20T13:28:06.103Z,2.23
2022-08-20T13:33:07.774Z,2.07
2022-08-20T13:38:09.444Z,2.10
2022-08-20T13:43:11.965Z,2.60
2022-08-20T13:48:14.903Z,1.97
2022-08-20T13:53:17.547Z,1.80
2022-08-20T13:58:21.641Z,2.07
2022-08-20T14:03:25.273Z,1.70
2022-08-20T14:08:27.439Z,2.20
2022-08-20T14:13:29.183Z,1.83
2022-08-20T14:18:30.857Z,2.10
2022-08-20T14:23:32.526Z,2.40
2022-08-20T14:28:38.653Z,2.70
2022-08-20T14:33:44.423Z,6.60
2022-08-20T14:38:46.415Z,4.20
2022-08-20T14:43:48.191Z,3.27
2022-08-20T14:48:53.300Z,2.83
2022-08-20T14:53:55.233Z,3.20
2022-08-20T14:58:56.896Z,3.07
2022-08-20T15:03:58.561Z,2.73
2022-08-20T15:09:00.225Z,2.80
2022-08-20T15:14:01.920Z,3.10
2022-08-20T15:19:03.799Z,2.90
2022-08-20T15:24:05.577Z,3.10
2022-08-20T15:29:23.050Z,2.90
2022-08-20T15:34:25.240Z,3.13
2022-08-20T15:39:27.879Z,3.40
2022-08-20T15:44:29.534Z,6.20
2022-08-20T15:49:31.188Z,5.80
2022-08-20T15:54:32.852Z,3.10
2022-08-20T16:00:22.882Z,2.90
2022-08-20T16:05:38.767Z,2.87
2022-08-20T16:10:46.421Z,2.70
2022-08-20T16:15:49.660Z,2.83
2022-08-20T16:20:52.711Z,2.70
2022-08-20T16:26:28.351Z,2.90
2022-08-20T16:31:32.764Z,2.77
2022-08-20T16:36:46.189Z,5.80
2022-08-20T16:42:00.472Z,6.43
2022-08-20T16:47:28.284Z,10.20
2022-08-20T16:52:29.959Z,4.10
2022-08-20T16:57:31.642Z,4.40
2022-08-20T17:02:33.305Z,3.70
2022-08-20T17:07:46.983Z,2.57
2022-08-20T17:12:54.334Z,2.87
2022-08-20T17:17:56.223Z,2.80
2022-08-20T17:23:18.245Z,3.90
2022-08-20T17:28:20.440Z,3.03
2022-08-20T17:33:30.049Z,2.60
2022-08-20T17:38:45.663Z,4.10
2022-08-20T17:43:47.335Z,3.00
2022-08-20T17:48:49.154Z,2.70
2022-08-20T17:53:53.300Z,4.23
2022-08-20T17:59:03.107Z,2.87
2022-08-20T18:04:05.420Z,3.10
2022-08-20T18:09:13.189Z,2.60
2022-08-20T18:14:19.375Z,2.80
2022-08-20T18:19:42.120Z,3.30
2022-08-20T18:24:55.483Z,4.40
2022-08-20T18:29:58.845Z,3.73
2022-08-20T18:35:11.343Z,7.00
2022-08-20T18:40:17.555Z,8.73
2022-08-20T18:45:33.644Z,6.37
2022-08-20T18:50:40.967Z,5.70
2022-08-20T18:55:44.968Z,7.93
2022-08-20T19:00:48.971Z,6.93
2022-08-20T19:06:26.732Z,5.37
2022-08-20T19:11:56.936Z,4.87
2022-08-20T19:17:10.043Z,4.90
2022-08-20T19:22:12.986Z,5.40
2022-08-20T19:27:14.629Z,9.50
2022-08-20T19:32:23.584Z,8.60
2022-08-20T19:37:39.645Z,8.07
2022-08-20T19:42:49.660Z,7.80
2022-08-20T19:48:07.999Z,7.43
2022-08-20T19:53:26.452Z,5.13
2022-08-20T19:58:32.409Z,5.70
2022-08-20T20:03:35.179Z,11.73
2022-08-20T20:08:43.331Z,8.03
2022-08-20T20:13:45.086Z,3.77
2022-08-20T20:18:58.847Z,3.50
2022-08-20T20:24:08.546Z,4.13
2022-08-20T20:29:18.916Z,3.17
2022-08-20T20:34:29.143Z,6.90
2022-08-20T20:39:36.156Z,4.60
2022-08-20T20:44:41.976Z,3.03
2022-08-20T20:49:52.217Z,3.23
2022-08-20T20:55:05.033Z,2.70
2022-08-20T21:00:13.666Z,2.40
2022-08-20T21:05:16.488Z,2.40
2022-08-20T21:10:19.372Z,2.50
2022-08-20T21:15:22.010Z,2.67
2022-08-20T21:20:23.853Z,2.60
2022-08-20T21:25:26.691Z,2.57
2022-08-20T21:30:28.506Z,2.60
2022-08-20T21:35:30.251Z,3.03
2022-08-20T21:40:31.955Z,3.70
2022-08-20T21:45:33.818Z,3.10
2022-08-20T21:50:35.572Z,3.93
2022-08-20T21:55:39.583Z,2.70
2022-08-20T22:00:57.856Z,2.50
2022-08-20T22:06:00.392Z,2.70
2022-08-20T22:11:02.036Z,2.47
2022-08-20T22:16:06.211Z,3.10
2022-08-20T22:21:10.464Z,3.10
2022-08-20T22:26:12.308Z,2.73
2022-08-20T22:31:14.241Z,2.30
2022-08-20T22:36:15.971Z,2.80
2022-08-20T22:41:18.086Z,2.80
2022-08-20T22:46:19.768Z,2.37
2022-08-20T22:51:32.556Z,2.60
2022-08-20T22:56:37.031Z,2.63
2022-08-20T23:01:39.230Z,2.90
2022-08-20T23:06:41.048Z,2.97
2022-08-20T23:11:42.696Z,2.70
2022-08-20T23:16:45.260Z,2.70
2022-08-20T23:21:48.088Z,3.27
2022-08-20T23:26:53.124Z,3.43
2022-08-20T23:31:55.655Z,3.87
2022-08-20T23:36:57.519Z,3.40
2022-08-20T23:41:59.285Z,3.40
2022-08-20T23:47:02.059Z,2.90
2022-08-20T23:52:03.798Z,3.23
2022-08-20T23:57:08.102Z,3.10
